Time;durP1;ratioP1;P1;durP2;ratioP2;P2;SDS_P1;SDS_P2;PMS_P1;PMS_P2;Temp;Humidity;BMP_temperature;BMP_pressure;BME280_temperature;BME280_humidity;BME280_pressure;Samples;Min_cycle;Max_cycle;Signal;HPM_P1;HPM_P2
2022/12/04 00:04:56;;;;;;;9.98;4.28;;;;;;;-4.70;87.90;102679.34;10337199;28;20046;-72
2022/12/04 00:09:56;;;;;;;12.52;4.57;;;;;;;-5.34;88.17;102581.38;10336643;28;20041;-73
2022/12/04 00:14:58;;;;;;;10.90;5.05;;;;;;;-5.10;88.03;102669.28;10333900;28;20042;-73
2022/12/04 00:19:59;;;;;;;15.82;4.25;;;;;;;-5.11;88.71;102666.72;10338044;28;20042;-73
2022/12/04 00:25:00;;;;;;;7.07;4.13;;;;;;;-5.72;88.25;102579.91;10336947;28;20042;-73
2022/12/04 00:30:01;;;;;;;11.95;4.32;;;;;;;-5.43;88.29;102599.56;10336615;28;20030;-73
2022/12/04 00:35:02;;;;;;;7.63;4.00;;;;;;;-5.26;87.82;102644.38;10337174;28;20039;-73
2022/12/04 00:40:03;;;;;;;7.50;3.75;;;;;;;-5.37;88.27;102636.66;10335768;28;20117;-73
2022/12/04 00:45:05;;;;;;;8.90;4.03;;;;;;;-5.84;88.58;102573.06;10335816;28;20050;-73
2022/12/04 00:50:06;;;;;;;9.00;3.88;;;;;;;-5.40;88.64;102659.13;10335147;28;20061;-73
2022/12/04 00:55:08;;;;;;;10.70;4.13;;;;;;;-5.39;89.02;102656.53;10335245;28;20042;-74
2022/12/04 01:00:09;;;;;;;7.85;3.80;;;;;;;-5.34;88.80;102657.38;10335526;28;20050;-73
2022/12/04 01:05:10;;;;;;;8.82;4.00;;;;;;;-5.27;88.74;102648.66;10334861;28;20388;-73
2022/12/04 01:10:12;;;;;;;7.75;3.30;;;;;;;-5.31;88.33;102661.66;10331422;28;20474;-73
2022/12/04 01:15:13;;;;;;;15.48;3.42;;;;;;;-5.50;89.02;102632.44;10294310;28;20046;-73
2022/12/04 01:20:14;;;;;;;5.18;2.78;;;;;;;-5.30;88.20;102668.56;10295115;28;20058;-74
2022/12/04 01:25:16;;;;;;;9.77;3.58;;;;;;;-5.44;88.02;102686.78;10294543;28;20043;-73
2022/12/04 01:30:16;;;;;;;15.32;2.92;;;;;;;-5.52;88.19;102683.38;10293420;28;20039;-73
2022/12/04 01:35:17;;;;;;;6.78;3.10;;;;;;;-5.90;87.79;102630.03;10293384;28;20039;-73
2022/12/04 01:40:18;;;;;;;11.88;3.13;;;;;;;-5.67;88.05;102684.31;10293148;28;20427;-73
2022/12/04 01:45:38;;;;;;;8.48;2.80;;;;;;;-5.69;87.26;102672.22;10292938;28;20053;-73
2022/12/04 01:50:42;;;;;;;9.57;3.08;;;;;;;-5.59;88.02;102692.91;10293460;28;20063;-73
2022/12/04 01:55:44;;;;;;;12.07;3.13;;;;;;;-6.08;87.29;102640.50;10294118;28;20047;-73
2022/12/04 02:00:47;;;;;;;17.08;3.65;;;;;;;-6.57;88.09;102547.56;10293082;28;20039;-73
2022/12/04 02:05:48;;;;;;;7.60;2.58;;;;;;;-6.24;87.74;102593.13;10292893;28;20042;-73
2022/12/04 02:11:10;;;;;;;7.43;2.50;;;;;;;-5.51;87.71;102724.78;10290664;28;20049;-73
2022/12/04 02:16:23;;;;;;;6.25;2.20;;;;;;;-5.47;87.81;102717.00;10292507;28;20038;-72
2022/12/04 02:21:39;;;;;;;13.43;3.42;;;;;;;-5.48;87.53;102723.06;10292851;28;20054;-73
2022/12/04 02:26:50;;;;;;;15.77;2.92;;;;;;;-6.22;87.30;102623.31;10291085;28;20038;-74
2022/12/04 02:32:19;;;;;;;13.00;2.85;;;;;;;-5.54;87.45;102726.53;10291795;28;20407;-73
2022/12/04 02:37:32;;;;;;;10.90;2.33;;;;;;;-5.76;87.23;102705.91;10291734;28;20399;-74
2022/12/04 02:42:48;;;;;;;9.68;2.83;;;;;;;-5.84;87.80;102718.00;10290942;28;20042;-73
2022/12/04 02:47:51;;;;;;;16.52;3.08;;;;;;;-5.78;88.01;102724.91;10290763;28;20070;-70
2022/12/04 02:53:02;;;;;;;12.98;3.30;;;;;;;-5.52;88.11;102736.03;10292011;28;20046;-70
2022/12/04 02:58:15;;;;;;;11.00;3.03;;;;;;;-6.24;87.56;102631.94;10291967;28;20051;-70
2022/12/04 03:03:25;;;;;;;16.63;3.28;;;;;;;-5.64;87.71;102745.56;10290675;28;20141;-70
2022/12/04 03:08:42;;;;;;;6.32;2.55;;;;;;;-6.21;87.43;102660.38;10290466;28;20034;-70
2022/12/04 03:13:48;;;;;;;12.80;2.90;;;;;;;-5.65;87.48;102752.50;10291195;28;20046;-71
2022/12/04 03:18:55;;;;;;;11.38;2.40;;;;;;;-5.59;87.12;102749.03;10291824;28;20047;-70
2022/12/04 03:24:06;;;;;;;16.35;2.85;;;;;;;-6.06;86.89;102678.44;10290157;28;20069;-70
2022/12/04 03:29:17;;;;;;;13.10;3.10;;;;;;;-5.85;87.11;102742.19;10290102;28;20594;-70
2022/12/04 03:34:42;;;;;;;13.85;3.35;;;;;;;-5.81;86.63;102730.09;10289984;28;20141;-70
2022/12/04 03:39:55;;;;;;;10.23;3.03;;;;;;;-6.18;86.77;102677.63;10289382;28;20074;-70
2022/12/04 03:45:28;;;;;;;9.35;2.50;;;;;;;-5.63;87.10;102768.84;10289741;28;20050;-70
2022/12/04 03:50:46;;;;;;;6.35;2.97;;;;;;;-5.66;86.62;102768.88;10282211;28;20050;-70
2022/12/04 03:56:14;;;;;;;12.02;3.05;;;;;;;-5.69;86.85;102748.16;10296321;28;20050;-71
2022/12/04 04:01:19;;;;;;;8.88;2.90;;;;;;;-5.56;86.33;102770.59;10297254;28;20051;-71
2022/12/04 04:06:29;;;;;;;11.38;2.83;;;;;;;-5.70;86.51;102771.50;10297354;28;20082;-72
2022/12/04 04:11:37;;;;;;;17.92;2.80;;;;;;;-5.78;86.69;102761.16;10297684;28;20054;-70
2022/12/04 04:27:25;;;;;;;9.40;2.47;;;;;;;-5.58;86.45;102774.03;10301171;28;20085;-71
2022/12/04 04:32:45;;;;;;;11.40;2.95;;;;;;;-5.67;85.98;102746.44;10311440;28;20081;-71
2022/12/04 04:38:30;;;;;;;8.50;2.65;;;;;;;-5.44;86.09;102776.56;10335527;28;20042;-71
2022/12/04 04:43:34;;;;;;;12.70;2.92;;;;;;;-5.40;86.34;102796.44;10310143;28;20161;-71
2022/12/04 04:48:40;;;;;;;12.15;3.63;;;;;;;-5.72;86.00;102761.13;10335390;28;20426;-70
2022/12/04 04:53:51;;;;;;;6.90;3.15;;;;;;;-5.46;86.99;102799.03;10327080;28;20106;-72
2022/12/04 04:58:52;;;;;;;11.30;2.90;;;;;;;-5.43;87.00;102809.38;10271940;28;20546;-70
2022/12/04 05:03:53;;;;;;;6.15;3.10;;;;;;;-5.53;86.90;102821.50;10334323;28;20053;-71
2022/12/04 05:08:54;;;;;;;16.70;2.90;;;;;;;-5.55;87.17;102831.84;10314013;28;20439;-71
2022/12/04 05:13:55;;;;;;;9.68;2.55;;;;;;;-6.07;86.75;102748.28;10293215;28;20046;-71
2022/12/04 05:24:15;;;;;;;12.27;2.78;;;;;;;-5.81;86.93;102782.72;10294351;28;20035;-71
2022/12/04 05:29:15;;;;;;;6.47;3.22;;;;;;;-5.76;86.99;102782.72;10299985;28;20038;-71
2022/12/04 05:34:16;;;;;;;11.45;3.08;;;;;;;-5.48;86.60;102814.56;10333339;28;20034;-71
2022/12/04 05:39:18;;;;;;;12.98;3.15;;;;;;;-5.75;86.49;102754.22;10333430;28;20052;-71
2022/12/04 05:44:19;;;;;;;9.20;2.22;;;;;;;-5.26;85.99;102838.69;10312932;28;20085;-71
2022/12/04 05:49:21;;;;;;;14.82;2.85;;;;;;;-5.31;85.96;102845.63;10299642;28;20058;-71
2022/12/04 05:54:23;;;;;;;7.60;2.80;;;;;;;-5.37;86.98;102830.09;10296768;28;20039;-71
2022/12/04 05:59:24;;;;;;;9.27;3.70;;;;;;;-5.80;86.11;102749.94;10253367;28;20047;-71
2022/12/04 06:04:25;;;;;;;13.18;3.13;;;;;;;-5.14;85.92;102863.69;10280257;28;20047;-71
2022/12/04 06:09:25;;;;;;;9.02;3.13;;;;;;;-5.23;85.70;102862.00;10302728;28;20042;-71
2022/12/04 06:14:26;;;;;;;9.05;3.65;;;;;;;-5.47;84.87;102810.25;10288499;28;20049;-70
2022/12/04 06:19:27;;;;;;;9.75;3.22;;;;;;;-5.47;85.43;102831.84;10302461;28;20081;-70
2022/12/04 06:24:28;;;;;;;13.40;3.65;;;;;;;-5.49;85.66;102833.56;10293462;28;20082;-71
2022/12/04 06:29:29;;;;;;;10.38;3.75;;;;;;;-5.64;86.26;102797.38;10318752;28;20046;-71
2022/12/04 06:34:30;;;;;;;10.93;4.05;;;;;;;-5.18;86.42;102849.00;10314670;28;20563;-71
2022/12/04 06:39:30;;;;;;;11.27;4.85;;;;;;;-5.49;85.49;102788.69;10313128;28;20560;-71
2022/12/04 06:44:31;;;;;;;19.20;3.70;;;;;;;-5.22;85.81;102843.00;10331350;28;20074;-70
2022/12/04 06:49:32;;;;;;;13.40;3.75;;;;;;;-5.28;85.81;102843.00;10320416;28;20059;-72
2022/12/04 06:54:33;;;;;;;10.90;4.30;;;;;;;-5.16;85.78;102857.66;10291240;28;20173;-71
2022/12/04 06:59:35;;;;;;;11.23;3.25;;;;;;;-4.97;85.68;102863.63;10292426;28;20065;-71
2022/12/04 07:04:35;;;;;;;12.40;4.47;;;;;;;-5.82;85.67;102724.06;10290321;28;20117;-71
2022/12/04 07:09:36;;;;;;;7.78;3.30;;;;;;;-5.19;86.04;102836.94;10290754;28;20096;-71
2022/12/04 07:14:37;;;;;;;6.53;3.03;;;;;;;-5.08;86.28;102814.44;10291818;28;20066;-70
2022/12/04 07:19:38;;;;;;;17.73;3.08;;;;;;;-5.20;86.04;102773.88;10290151;28;20089;-72
2022/12/04 07:24:39;;;;;;;10.90;3.53;;;;;;;-5.01;85.46;102802.31;10291779;28;20049;-71
2022/12/04 07:29:41;;;;;;;13.40;3.30;;;;;;;-5.06;85.30;102764.28;10298347;28;20054;-73
2022/12/04 07:34:42;;;;;;;10.15;3.58;;;;;;;-4.65;85.45;102876.44;10299624;28;20045;-72
2022/12/04 07:39:42;;;;;;;7.55;3.70;;;;;;;-4.66;86.25;102872.13;10274925;28;20043;-72
2022/12/04 07:44:43;;;;;;;6.30;2.75;;;;;;;-5.22;86.32;102757.47;10305401;28;20052;-87
2022/12/04 07:49:44;;;;;;;9.35;3.25;;;;;;;-5.61;86.19;102686.88;10311327;28;20093;-86
2022/12/04 07:54:45;;;;;;;6.40;3.05;;;;;;;-4.50;86.38;102854.72;10298874;28;20043;-85
2022/12/04 07:59:46;;;;;;;7.88;3.00;;;;;;;-4.34;85.18;102838.16;10298879;28;20125;-86
2022/12/04 08:04:46;;;;;;;13.55;3.30;;;;;;;-4.33;85.61;102845.09;10309820;28;20038;-86
2022/12/04 08:09:47;;;;;;;6.55;2.25;;;;;;;-4.19;85.30;102843.28;10339462;28;20048;-84
2022/12/04 09:48:38;;;;;;;13.45;3.20;;;;;;;-4.09;87.73;102812.91;10533319;27;20426;-84
2022/12/04 09:53:52;;;;;;;9.27;2.60;;;;;;;-4.34;87.83;102731.78;10491657;28;20079;-82
2022/12/04 09:59:18;;;;;;;16.67;2.63;;;;;;;-3.82;86.81;102785.81;10478178;28;20464;-81
2022/12/04 10:04:19;;;;;;;16.92;3.60;;;;;;;-3.55;86.10;102796.78;10446558;28;20440;-85
2022/12/04 10:09:29;;;;;;;17.40;3.92;;;;;;;-3.53;86.20;102795.00;10450679;28;20041;-84
2022/12/04 10:14:54;;;;;;;7.97;2.90;;;;;;;-3.53;85.96;102800.19;10450482;28;20136;-85
2022/12/04 10:20:13;;;;;;;7.95;3.00;;;;;;;-3.61;85.20;102807.25;10450304;28;20404;-85
2022/12/04 10:25:19;;;;;;;8.35;2.55;;;;;;;-4.02;85.63;102710.72;10449342;28;20413;-84
2022/12/04 10:30:30;;;;;;;10.85;3.40;;;;;;;-3.86;84.27;102723.50;10450135;28;20065;-84
2022/12/04 10:35:34;;;;;;;10.85;3.17;;;;;;;-3.35;84.96;102805.22;10448597;28;20447;-86
2022/12/04 10:40:40;;;;;;;;;;;;;;;-3.24;84.37;102802.47;10449985;28;20071;-84
2022/12/04 10:45:41;;;;;;;11.40;2.83;;;;;;;-3.39;83.88;102780.13;10448957;28;19959;-85
2022/12/04 10:50:43;;;;;;;9.52;3.08;;;;;;;-3.31;84.10;102800.84;10448547;28;20140;-85
2022/12/04 10:55:43;;;;;;;11.45;3.45;;;;;;;-3.62;84.44;102766.53;10444558;28;20041;-84
2022/12/04 11:01:00;;;;;;;9.20;3.05;;;;;;;-3.39;84.35;102787.06;10421508;28;20045;-85
2022/12/04 11:06:04;;;;;;;10.00;4.40;;;;;;;-3.41;84.86;102781.00;10420140;28;20041;-86
2022/12/04 11:11:11;;;;;;;136.13;60.30;;;;;;;-3.55;83.87;102797.63;10413189;28;20073;-89
2022/12/04 11:16:33;;;;;;;16.02;7.00;;;;;;;-3.83;85.12;102739.91;10395570;28;20410;-93
2022/12/04 11:21:33;;;;;;;51.50;26.17;;;;;;;-3.58;84.73;102782.09;10390958;28;20045;-87
2022/12/04 11:26:37;;;;;;;53.80;25.45;;;;;;;-3.51;84.43;102780.28;10386826;28;20138;-87
2022/12/04 11:31:39;;;;;;;94.33;44.17;;;;;;;-3.78;84.65;102743.34;10386706;28;20494;-89
2022/12/04 11:36:41;;;;;;;97.55;40.08;;;;;;;-3.81;84.89;102748.56;10379318;28;20084;-91
2022/12/04 11:41:43;;;;;;;599.67;418.02;;;;;;;-3.57;85.02;102806.31;10379032;28;20045;-89
2022/12/04 11:46:51;;;;;;;137.80;78.13;;;;;;;-4.07;84.94;102751.41;10378958;28;20125;-86
2022/12/04 11:52:14;;;;;;;755.35;488.38;;;;;;;-4.04;85.63;102753.97;10396101;28;20056;-89
2022/12/04 11:57:46;;;;;;;641.63;428.67;;;;;;;-3.63;85.52;102809.84;10378357;28;20128;-89
2022/12/04 12:03:10;;;;;;;35.17;11.32;;;;;;;-4.03;85.37;102742.75;10378930;28;20042;-87
2022/12/04 12:08:38;;;;;;;17.33;7.60;;;;;;;-3.58;85.48;102815.00;10402346;28;20045;-80
2022/12/04 12:13:57;;;;;;;46.13;19.80;;;;;;;-3.59;85.27;102813.25;10395930;28;20099;-77
2022/12/04 12:19:15;;;;;;;130.60;45.97;;;;;;;-4.18;85.40;102733.38;10406314;28;20037;-79
2022/12/04 12:24:28;;;;;;;39.65;21.52;;;;;;;-3.84;85.50;102795.34;10375608;28;20037;-79
2022/12/04 12:29:48;;;;;;;84.57;36.65;;;;;;;-3.63;85.27;102825.44;10374217;28;20048;-79
2022/12/04 12:34:50;;;;;;;67.70;29.58;;;;;;;-3.73;85.03;102816.88;10374214;28;20049;-78
2022/12/04 12:40:10;;;;;;;26.65;9.88;;;;;;;-3.88;84.63;102788.47;10374852;28;20041;-79
2022/12/04 12:45:26;;;;;;;35.65;14.52;;;;;;;-3.68;84.68;102832.41;10374345;28;20061;-79
2022/12/04 12:51:08;;;;;;;36.05;14.40;;;;;;;-3.82;84.69;102816.13;10373671;28;20042;-78
2022/12/04 12:56:11;;;;;;;22.73;13.20;;;;;;;-3.91;84.32;102804.94;10373903;28;20061;-78
2022/12/04 13:01:20;;;;;;;155.55;100.78;;;;;;;-3.56;84.33;102839.22;10372997;28;20510;-79
2022/12/04 13:06:29;;;;;;;34.50;14.70;;;;;;;-3.59;84.25;102837.53;10373508;28;20083;-78
2022/12/04 13:11:31;;;;;;;32.88;11.82;;;;;;;-4.12;83.68;102727.25;10372234;28;20041;-78
2022/12/04 13:16:48;;;;;;;29.98;10.55;;;;;;;-3.56;82.89;102818.41;10372943;28;20053;-78
2022/12/04 13:21:58;;;;;;;25.45;8.75;;;;;;;-3.57;82.91;102798.53;10372973;28;20088;-79
2022/12/04 13:27:14;;;;;;;29.00;7.63;;;;;;;-3.99;81.62;102751.34;10372004;28;20042;-79
2022/12/04 13:32:33;;;;;;;36.63;10.98;;;;;;;-3.58;82.05;102833.19;10372791;28;20042;-78
2022/12/04 13:37:52;;;;;;;47.92;25.13;;;;;;;-3.93;81.86;102753.88;10370917;28;20056;-79
2022/12/04 13:43:15;;;;;;;51.13;37.78;;;;;;;-3.81;81.97;102786.66;10371418;28;20041;-79
2022/12/04 13:48:41;;;;;;;26.88;8.20;;;;;;;-3.54;81.90;102833.13;10372000;28;20153;-80
2022/12/04 13:53:43;;;;;;;22.42;8.27;;;;;;;-3.71;82.30;102829.84;10372841;28;20054;-79
2022/12/04 13:58:44;;;;;;;27.50;6.93;;;;;;;-3.67;82.36;102837.59;10373300;28;20116;-78
2022/12/04 14:03:53;;;;;;;18.80;4.63;;;;;;;-3.58;82.43;102846.19;10390952;28;20037;-80
2022/12/04 14:09:01;;;;;;;20.27;5.22;;;;;;;-3.74;82.03;102822.97;10393016;28;20049;-81
2022/12/04 14:14:02;;;;;;;18.25;5.78;;;;;;;-3.58;82.80;102835.78;10413404;28;20454;-81
2022/12/04 14:19:05;;;;;;;10.82;3.35;;;;;;;-4.01;82.52;102740.13;10374344;28;20128;-82
2022/12/04 14:24:34;;;;;;;25.17;9.60;;;;;;;-3.43;82.48;102838.22;10373138;28;20046;-81
2022/12/04 14:30:02;;;;;;;35.47;11.18;;;;;;;-3.33;82.67;102820.78;10372492;28;20137;-81
2022/12/04 14:35:03;;;;;;;31.65;13.63;;;;;;;-3.48;82.95;102799.28;10376982;28;20060;-80
2022/12/04 14:40:06;;;;;;;20.23;6.53;;;;;;;-3.35;83.09;102843.31;10379121;28;20052;-80
2022/12/04 14:45:42;;;;;;;18.20;8.18;;;;;;;-3.46;83.29;102838.25;10431266;28;20060;-77
2022/12/04 14:50:54;;;;;;;17.02;5.45;;;;;;;-3.57;83.78;102834.91;10415260;28;20458;-79
2022/12/04 14:56:16;;;;;;;13.45;4.45;;;;;;;-3.57;84.36;102846.16;10419312;28;20049;-79
2022/12/04 15:01:26;;;;;;;20.95;7.43;;;;;;;-3.67;84.89;102839.34;10420703;28;20124;-90
2022/12/04 15:06:30;;;;;;;27.80;7.93;;;;;;;-3.96;84.65;102796.31;10420835;28;20080;-82
2022/12/04 15:17:01;;;;;;;17.77;7.13;;;;;;;-3.80;85.71;102827.34;10420145;28;20456;-83
2022/12/04 15:22:04;;;;;;;15.82;5.93;;;;;;;-3.63;85.80;102855.75;10418991;28;20056;-77
2022/12/04 15:27:06;;;;;;;26.90;10.10;;;;;;;-3.82;86.68;102814.38;10419231;28;20420;-76
2022/12/04 15:32:10;;;;;;;21.50;10.80;;;;;;;-4.06;87.13;102783.47;10397407;28;20041;-79
2022/12/04 15:37:31;;;;;;;33.92;15.27;;;;;;;-3.64;88.18;102846.25;10387410;28;20095;-77
2022/12/04 15:42:32;;;;;;;29.23;9.88;;;;;;;-3.72;88.29;102854.97;10388273;28;20057;-76
2022/12/04 15:47:50;;;;;;;23.30;9.20;;;;;;;-3.91;89.40;102809.28;10406079;28;20054;-79
2022/12/04 15:52:57;;;;;;;30.98;10.55;;;;;;;-4.12;89.41;102750.63;10387775;28;20103;-79
2022/12/04 15:58:05;;;;;;;30.85;14.10;;;;;;;-3.80;89.79;102829.94;10391242;28;20077;-78
2022/12/04 16:03:30;;;;;;;11.07;4.88;;;;;;;-3.81;91.02;102812.63;10397212;28;20595;-79
2022/12/04 16:08:35;;;;;;;16.60;9.68;;;;;;;-3.70;89.51;102840.22;10389781;28;20070;-89
2022/12/04 16:13:37;;;;;;;65.78;47.05;;;;;;;-3.87;89.60;102808.34;10372542;28;20058;-84
2022/12/04 16:18:38;;;;;;;31.98;18.70;;;;;;;-3.95;90.22;102804.97;10381929;28;20042;-78
2022/12/04 16:23:39;;;;;;;15.60;5.90;;;;;;;-3.94;91.20;102828.34;10379231;28;20045;-82
2022/12/04 16:28:40;;;;;;;11.45;4.32;;;;;;;-4.03;91.94;102836.22;10385696;28;20033;-79
2022/12/04 16:33:41;;;;;;;11.07;5.28;;;;;;;-4.75;91.99;102690.66;10416923;28;20038;-81
2022/12/04 16:38:42;;;;;;;12.10;4.30;;;;;;;-4.15;91.08;102813.81;10416193;28;20049;-80
2022/12/04 16:43:43;;;;;;;12.90;4.82;;;;;;;-4.29;91.60;102807.00;10415723;28;20547;-77
2022/12/04 16:48:44;;;;;;;13.60;5.15;;;;;;;-4.62;91.83;102778.72;10414507;28;20044;-79
2022/12/04 16:53:45;;;;;;;21.25;6.97;;;;;;;-4.73;92.24;102767.53;10429715;28;20374;-79
2022/12/04 16:58:46;;;;;;;11.00;4.70;;;;;;;-4.56;92.59;102802.88;10414510;28;20076;-79
2022/12/04 17:03:47;;;;;;;14.73;5.00;;;;;;;-4.91;92.43;102744.34;10421909;28;20124;-81
2022/12/04 17:08:48;;;;;;;12.77;6.07;;;;;;;-4.59;92.26;102788.22;10417677;28;20049;-77
2022/12/04 17:13:49;;;;;;;24.50;9.63;;;;;;;-4.87;92.79;102720.97;10418723;28;20611;-77
2022/12/04 17:18:51;;;;;;;9.52;3.42;;;;;;;-4.95;92.31;102740.06;10371647;28;20505;-78
2022/12/04 17:23:51;;;;;;;8.70;3.22;;;;;;;-4.75;93.31;102787.47;10372541;28;20038;-78
2022/12/04 17:28:52;;;;;;;8.55;3.25;;;;;;;-5.09;92.88;102735.78;10371090;28;20543;-78
2022/12/04 17:33:55;;;;;;;6.05;2.50;;;;;;;-4.88;93.49;102775.41;10372553;28;20058;-78
2022/12/04 17:39:00;;;;;;;9.00;3.08;;;;;;;-5.33;93.55;102710.03;10373227;28;20060;-78
2022/12/04 17:44:01;;;;;;;13.88;3.78;;;;;;;-5.18;93.30;102738.44;10373875;28;20548;-77
2022/12/04 17:49:02;;;;;;;10.50;3.28;;;;;;;-5.73;93.22;102658.44;10372405;28;20053;-78
2022/12/04 17:54:05;;;;;;;9.68;3.70;;;;;;;-5.03;94.07;102778.97;10371416;28;20045;-77
2022/12/04 17:59:05;;;;;;;8.68;4.35;;;;;;;-5.10;94.79;102764.31;10372273;28;20034;-77
2022/12/04 18:04:07;;;;;;;8.65;3.40;;;;;;;-4.95;94.42;102784.13;10381898;28;20418;-76
2022/12/04 18:09:10;;;;;;;10.45;4.07;;;;;;;-5.51;94.78;102690.25;10394346;28;20544;-76
2022/12/04 18:14:15;;;;;;;9.00;2.75;;;;;;;-4.85;94.25;102778.00;10419115;28;20038;-77
2022/12/04 18:19:15;;;;;;;;;;;;;;;-4.73;93.70;102780.50;10396750;28;20041;-76
2022/12/04 18:24:17;;;;;;;10.05;4.82;;;;;;;-5.09;93.84;102734.94;10377968;28;19940;-76
2022/12/04 18:29:23;;;;;;;11.90;5.45;;;;;;;-4.91;93.55;102760.75;10379704;28;20182;-76
2022/12/04 18:34:24;;;;;;;6.75;3.45;;;;;;;-4.86;93.48;102758.13;10379341;28;20085;-78
2022/12/04 18:39:25;;;;;;;10.30;3.95;;;;;;;-5.07;93.36;102713.34;10378777;28;20128;-77
2022/12/04 18:44:27;;;;;;;12.00;3.90;;;;;;;-4.72;93.74;102781.41;10378491;28;20093;-78
2022/12/04 18:49:28;;;;;;;12.25;3.55;;;;;;;-4.62;93.50;102775.25;10377317;28;20038;-78
2022/12/04 18:54:29;;;;;;;6.85;3.17;;;;;;;-4.82;93.14;102750.34;10408196;28;20133;-77
2022/12/04 18:59:30;;;;;;;9.73;2.97;;;;;;;-4.90;93.12;102743.47;10418572;28;20623;-77
2022/12/04 19:04:32;;;;;;;8.07;2.70;;;;;;;-4.76;93.60;102772.75;10399237;28;20041;-77
2022/12/04 19:09:33;;;;;;;8.25;2.78;;;;;;;-5.52;93.08;102637.59;10375994;28;20045;-77
2022/12/04 19:14:33;;;;;;;8.05;3.08;;;;;;;-4.91;93.55;102741.75;10378602;28;20065;-77
2022/12/04 19:19:34;;;;;;;6.85;3.08;;;;;;;-4.92;93.04;102732.25;10380987;28;20187;-77
2022/12/04 19:24:35;;;;;;;8.77;3.25;;;;;;;-4.74;93.05;102763.22;10419360;28;20040;-76
2022/12/04 19:29:41;;;;;;;9.43;3.38;;;;;;;-5.11;93.23;102683.13;10417450;28;20034;-76
2022/12/04 19:34:42;;;;;;;5.68;2.72;;;;;;;-4.86;93.09;102738.25;10432250;28;20420;-77
2022/12/04 19:39:43;;;;;;;7.07;2.83;;;;;;;-4.69;93.21;102760.63;10417410;28;20029;-77
2022/12/04 19:44:44;;;;;;;9.25;3.00;;;;;;;-4.72;93.29;102758.91;10417496;28;20057;-76
2022/12/04 19:49:45;;;;;;;10.25;3.20;;;;;;;-5.14;93.41;102690.94;10417202;28;20041;-76
2022/12/04 19:54:46;;;;;;;9.40;3.25;;;;;;;-4.73;93.30;102759.75;10415649;28;20034;-76
2022/12/04 19:59:47;;;;;;;6.97;2.88;;;;;;;-4.85;93.30;102727.00;10417086;28;20083;-77
2022/12/04 20:04:47;;;;;;;6.97;3.28;;;;;;;-4.63;93.30;102753.66;10416856;28;20136;-77
2022/12/04 20:09:48;;;;;;;10.27;3.08;;;;;;;-5.16;93.81;102660.72;10431971;28;20042;-77
2022/12/04 20:14:49;;;;;;;5.13;2.63;;;;;;;-4.71;93.33;102720.88;10411825;28;20049;-76
2022/12/04 20:19:50;;;;;;;5.97;2.58;;;;;;;-4.50;93.15;102736.25;10398644;28;20054;-77
2022/12/04 20:24:50;;;;;;;7.85;3.22;;;;;;;-4.51;93.22;102736.28;10406921;28;20045;-77
2022/12/04 20:29:51;;;;;;;10.43;2.55;;;;;;;-4.93;92.91;102668.31;10397596;28;20049;-77
2022/12/04 20:34:52;;;;;;;8.52;3.30;;;;;;;-4.66;92.88;102701.81;10414155;28;20492;-77
2022/12/04 20:39:53;;;;;;;6.22;3.15;;;;;;;-4.51;93.33;102739.72;10415529;28;20401;-77
2022/12/04 20:44:57;;;;;;;6.80;2.80;;;;;;;-4.50;93.17;102715.50;10430400;28;20055;-77
2022/12/04 20:49:58;;;;;;;8.38;3.00;;;;;;;-4.46;93.57;102729.28;10413660;28;20045;-77
2022/12/04 20:54:59;;;;;;;4.95;2.78;;;;;;;-4.62;93.05;102702.63;10414494;28;20476;-77
2022/12/04 21:00:00;;;;;;;8.48;2.90;;;;;;;-4.59;93.06;102690.50;10414709;28;20524;-77
2022/12/04 21:05:01;;;;;;;7.40;2.25;;;;;;;-4.42;92.66;102711.09;10414715;28;20037;-77
2022/12/04 21:10:02;;;;;;;7.35;2.58;;;;;;;-4.53;92.89;102693.91;10414282;28;20045;-77
2022/12/04 21:20:23;;;;;;;11.65;2.22;;;;;;;-4.62;92.61;102682.75;10413861;28;20045;-77
2022/12/04 21:25:25;;;;;;;9.30;2.45;;;;;;;-4.73;92.36;102650.84;10414299;28;20545;-77
2022/12/04 21:30:25;;;;;;;7.18;2.15;;;;;;;-4.65;92.68;102684.50;10413379;28;20048;-79
2022/12/04 21:35:27;;;;;;;11.10;2.42;;;;;;;-4.64;92.63;102666.31;10413758;28;20052;-77
2022/12/04 21:40:28;;;;;;;6.03;2.53;;;;;;;-4.61;92.85;102689.66;10412644;28;20090;-76
2022/12/04 21:45:29;;;;;;;6.57;2.95;;;;;;;-4.72;92.93;102668.16;10412859;28;20623;-77
2022/12/04 21:50:30;;;;;;;8.60;2.65;;;;;;;-4.64;92.95;102678.44;10413640;28;20049;-77
2022/12/04 21:55:30;;;;;;;5.28;2.47;;;;;;;-4.85;92.89;102657.00;10412493;28;20045;-77
2022/12/04 22:00:31;;;;;;;5.47;2.50;;;;;;;-4.75;93.67;102665.59;10412918;28;20030;-77
2022/12/04 22:05:32;;;;;;;6.50;2.22;;;;;;;-4.58;93.66;102696.53;10413411;28;20136;-77
2022/12/04 22:10:38;;;;;;;6.72;2.40;;;;;;;-4.74;93.29;102656.06;10411926;28;20485;-77
2022/12/04 22:15:43;;;;;;;9.68;2.30;;;;;;;-4.63;93.55;102675.84;10410934;28;20410;-77
2022/12/04 22:20:43;;;;;;;6.55;2.67;;;;;;;-4.89;94.02;102637.16;10412987;28;20048;-77
2022/12/04 22:25:44;;;;;;;6.03;2.20;;;;;;;-4.65;94.48;102659.44;10412285;28;20041;-77
2022/12/04 22:30:45;;;;;;;8.25;2.92;;;;;;;-4.71;94.43;102669.00;10411864;28;20068;-78
2022/12/04 22:35:46;;;;;;;8.35;2.80;;;;;;;-4.65;94.75;102662.03;10410201;28;20409;-76
2022/12/04 22:40:46;;;;;;;8.90;2.42;;;;;;;-4.82;94.44;102638.84;10412045;28;20037;-75
2022/12/04 22:45:48;;;;;;;10.40;3.03;;;;;;;-4.96;94.32;102600.94;10412270;28;20081;-77
2022/12/04 22:51:03;;;;;;;5.97;2.30;;;;;;;-4.77;94.21;102636.19;10411419;28;20076;-78
2022/12/04 22:56:19;;;;;;;5.95;2.00;;;;;;;-4.59;94.22;102690.50;10419465;28;20060;-78
2022/12/04 23:01:23;;;;;;;4.05;2.13;;;;;;;-4.57;94.04;102679.28;10418595;28;20049;-76
2022/12/04 23:06:26;;;;;;;5.07;2.08;;;;;;;-4.66;94.00;102667.25;10419710;28;20406;-77
2022/12/04 23:11:28;;;;;;;6.30;1.73;;;;;;;-4.67;93.58;102675.88;10418987;28;20043;-77
2022/12/04 23:16:31;;;;;;;3.92;1.40;;;;;;;-4.76;93.54;102645.69;10418354;28;20048;-77
2022/12/04 23:21:32;;;;;;;4.90;2.15;;;;;;;-4.73;93.32;102650.84;10417839;28;20049;-77
2022/12/04 23:26:35;;;;;;;4.93;2.00;;;;;;;-4.63;93.26;102672.41;10417550;28;20516;-77
2022/12/04 23:31:36;;;;;;;9.57;3.25;;;;;;;-5.00;93.38;102599.25;10417652;28;20052;-76
2022/12/04 23:36:37;;;;;;;8.23;1.90;;;;;;;-4.79;92.82;102644.84;10418205;28;20044;-77
2022/12/04 23:41:38;;;;;;;10.63;3.05;;;;;;;-4.67;92.73;102657.72;10416925;28;20099;-76
2022/12/04 23:46:38;;;;;;;4.35;1.75;;;;;;;-5.17;92.18;102557.94;10417953;28;20417;-76
2022/12/04 23:51:39;;;;;;;3.78;2.00;;;;;;;-4.72;91.82;102643.94;10416664;28;20409;-77
2022/12/04 23:56:40;;;;;;;4.88;1.80;;;;;;;-4.99;91.89;102606.16;10417083;28;20044;-77
